createdAt,value
2023-04-03T00:00:32.575Z,9.00
2023-04-03T00:01:32.531Z,9.70
2023-04-03T00:02:32.626Z,7.30
2023-04-03T00:03:32.513Z,6.00
2023-04-03T00:04:32.531Z,5.30
2023-04-03T00:05:32.497Z,7.40
2023-04-03T00:06:33.492Z,7.60
2023-04-03T00:07:32.495Z,6.30
2023-04-03T00:08:32.459Z,5.60
2023-04-03T00:09:32.456Z,7.00
2023-04-03T00:10:32.449Z,8.10
2023-04-03T00:11:32.439Z,7.10
2023-04-03T00:12:32.439Z,7.20
2023-04-03T00:13:32.415Z,6.80
2023-04-03T00:14:32.394Z,5.70
2023-04-03T00:15:32.392Z,6.00
2023-04-03T00:16:32.400Z,7.10
2023-04-03T00:17:32.412Z,9.00
2023-04-03T00:18:32.357Z,7.60
2023-04-03T00:19:32.345Z,9.50
2023-04-03T00:20:32.340Z,5.50
2023-04-03T00:21:32.333Z,7.50
2023-04-03T00:22:32.340Z,6.80
2023-04-03T00:23:32.322Z,8.60
2023-04-03T00:24:32.417Z,8.50
2023-04-03T00:25:32.296Z,7.30
2023-04-03T00:26:32.293Z,7.40
2023-04-03T00:27:32.271Z,6.20
2023-04-03T00:28:32.269Z,11.60
2023-04-03T00:29:32.278Z,6.50
2023-04-03T00:30:32.244Z,7.90
2023-04-03T00:31:32.271Z,8.40
2023-04-03T00:32:32.285Z,7.10
2023-04-03T00:33:32.224Z,8.60
2023-04-03T00:34:32.200Z,6.40
2023-04-03T00:35:32.269Z,6.10
2023-04-03T00:36:32.286Z,7.90
2023-04-03T00:37:32.212Z,7.80
2023-04-03T00:38:32.176Z,6.40
2023-04-03T00:39:32.180Z,7.70
2023-04-03T00:40:32.150Z,8.30
2023-04-03T00:41:32.138Z,8.80
2023-04-03T00:42:32.143Z,8.00
2023-04-03T00:43:32.117Z,11.20
2023-04-03T00:44:32.158Z,10.00
2023-04-03T00:45:32.117Z,8.00
2023-04-03T00:46:32.116Z,6.50
2023-04-03T00:47:32.143Z,7.10
2023-04-03T00:48:32.076Z,7.20
2023-04-03T00:49:32.088Z,6.10
2023-04-03T00:50:32.052Z,10.00
2023-04-03T00:51:32.047Z,7.10
2023-04-03T00:52:32.042Z,9.70
2023-04-03T00:53:32.016Z,7.60
2023-04-03T00:54:32.010Z,10.60
2023-04-03T00:55:31.999Z,9.30
2023-04-03T00:56:31.999Z,8.90
2023-04-03T00:57:32.160Z,7.90
2023-04-03T00:58:31.981Z,10.40
2023-04-03T00:59:31.963Z,9.20
2023-04-03T01:00:31.962Z,6.90
2023-04-03T01:01:31.971Z,9.40
2023-04-03T01:02:31.978Z,8.20
2023-04-03T01:03:31.928Z,8.30
2023-04-03T01:04:32.080Z,10.80
2023-04-03T01:05:31.917Z,9.80
2023-04-03T01:06:31.896Z,9.10
2023-04-03T01:07:31.913Z,8.60
2023-04-03T01:08:31.877Z,7.50
2023-04-03T01:09:31.867Z,7.50
2023-04-03T01:10:31.874Z,9.30
2023-04-03T01:11:31.852Z,8.90
2023-04-03T01:12:31.858Z,8.00
2023-04-03T01:13:31.830Z,8.40
2023-04-03T01:14:31.824Z,6.00
2023-04-03T01:15:31.811Z,11.00
2023-04-03T01:16:31.864Z,7.80
2023-04-03T01:17:31.833Z,9.80
2023-04-03T01:18:31.805Z,10.40
2023-04-03T01:19:31.778Z,6.90
2023-04-03T01:20:31.766Z,8.40
2023-04-03T01:21:31.761Z,9.10
2023-04-03T01:22:31.775Z,7.80
2023-04-03T01:23:31.748Z,8.30
2023-04-03T01:24:31.726Z,7.90
2023-04-03T01:25:31.732Z,12.50
2023-04-03T01:26:31.727Z,9.20
2023-04-03T01:27:31.726Z,11.50
2023-04-03T01:28:31.702Z,8.50
2023-04-03T01:29:31.689Z,11.20
2023-04-03T01:30:31.696Z,9.00
2023-04-03T01:31:31.673Z,9.10
2023-04-03T01:32:31.731Z,9.60
2023-04-03T01:33:31.654Z,14.10
2023-04-03T01:34:31.656Z,8.30
2023-04-03T01:35:31.695Z,12.20
2023-04-03T01:36:31.634Z,9.50
2023-04-03T01:37:31.642Z,9.10
2023-04-03T01:38:31.618Z,8.20
2023-04-03T01:39:31.627Z,9.40
2023-04-03T01:40:31.601Z,10.20
2023-04-03T01:41:31.599Z,10.70
2023-04-03T01:42:31.597Z,9.00
2023-04-03T01:43:31.574Z,9.70
2023-04-03T01:44:31.568Z,8.10
2023-04-03T01:45:31.572Z,7.10
2023-04-03T01:46:31.552Z,8.20
2023-04-03T01:47:31.585Z,10.70
2023-04-03T01:48:31.537Z,7.50
2023-04-03T01:49:31.531Z,12.40
2023-04-03T01:50:31.520Z,10.10
2023-04-03T01:51:31.511Z,8.90
2023-04-03T01:52:31.521Z,8.70
2023-04-03T01:53:31.496Z,7.80
2023-04-03T01:54:31.486Z,7.20
2023-04-03T01:55:31.477Z,9.20
2023-04-03T01:56:31.479Z,12.80
2023-04-03T01:57:31.640Z,8.10
2023-04-03T01:58:31.461Z,11.20
2023-04-03T01:59:31.456Z,10.40
2023-04-03T02:00:31.432Z,8.30
2023-04-03T02:01:31.490Z,11.00
2023-04-03T02:02:31.478Z,8.70
2023-04-03T02:03:31.403Z,7.70
2023-04-03T02:04:31.445Z,12.90
2023-04-03T02:05:31.398Z,9.40
2023-04-03T02:06:31.389Z,8.20
2023-04-03T02:07:31.407Z,11.30
2023-04-03T02:08:31.378Z,10.50
2023-04-03T02:09:31.388Z,11.80
2023-04-03T02:10:31.395Z,12.30
2023-04-03T02:11:31.357Z,10.60
2023-04-03T02:12:31.336Z,9.40
2023-04-03T02:13:31.341Z,12.40
2023-04-03T02:14:31.311Z,11.30
2023-04-03T02:15:31.327Z,11.30
2023-04-03T02:16:31.319Z,10.60
2023-04-03T02:17:31.318Z,12.00
2023-04-03T02:18:31.277Z,10.00
2023-04-03T02:19:31.278Z,8.20
2023-04-03T02:20:31.301Z,9.40
2023-04-03T02:21:31.250Z,9.40
2023-04-03T02:22:31.278Z,9.00
2023-04-03T02:23:31.231Z,11.70
2023-04-03T02:24:31.224Z,9.10
2023-04-03T02:25:31.215Z,10.50
2023-04-03T02:26:31.203Z,13.80
2023-04-03T02:27:31.194Z,10.20
2023-04-03T02:28:31.221Z,8.00
2023-04-03T02:29:31.186Z,12.10
2023-04-03T02:30:31.171Z,9.20
2023-04-03T02:31:31.190Z,7.80
2023-04-03T02:32:31.177Z,11.20
2023-04-03T02:33:31.165Z,10.40
2023-04-03T02:34:31.136Z,12.60
2023-04-03T02:35:31.151Z,10.00
2023-04-03T02:36:32.994Z,8.90
2023-04-03T02:37:32.111Z,10.40
2023-04-03T02:38:31.118Z,10.40
2023-04-03T02:39:31.083Z,10.40
2023-04-03T02:40:31.080Z,13.60
2023-04-03T02:41:31.068Z,9.10
2023-04-03T02:42:31.063Z,8.20
2023-04-03T02:43:31.066Z,12.40
2023-04-03T02:44:31.053Z,11.10
2023-04-03T02:45:31.041Z,9.00
2023-04-03T02:46:31.046Z,11.60
2023-04-03T02:47:31.084Z,10.90
2023-04-03T02:48:31.022Z,16.40
2023-04-03T02:49:30.999Z,8.40
2023-04-03T02:50:31.009Z,9.80
2023-04-03T02:51:30.988Z,9.40
2023-04-03T02:52:30.975Z,12.30
2023-04-03T02:53:30.987Z,11.20
2023-04-03T02:54:30.961Z,11.40
2023-04-03T02:55:30.944Z,10.20
2023-04-03T02:56:30.939Z,12.30
2023-04-03T02:57:31.057Z,13.70
2023-04-03T02:58:30.932Z,10.80
2023-04-03T02:59:30.918Z,9.70
2023-04-03T03:00:30.906Z,11.00
2023-04-03T03:01:30.935Z,10.10
2023-04-03T03:02:30.940Z,10.40
2023-04-03T03:03:30.909Z,13.40
2023-04-03T03:04:30.918Z,11.60
2023-04-03T03:05:30.863Z,12.50
2023-04-03T03:06:30.850Z,14.10
2023-04-03T03:07:30.835Z,11.20
2023-04-03T03:08:30.852Z,11.70
2023-04-03T03:09:30.825Z,10.30
2023-04-03T03:10:30.815Z,11.50
2023-04-03T03:11:30.800Z,12.10
2023-04-03T03:12:32.704Z,11.30
2023-04-03T03:13:30.832Z,10.40
2023-04-03T03:14:30.783Z,10.00
2023-04-03T03:15:30.782Z,12.70
2023-04-03T03:16:30.826Z,11.60
2023-04-03T03:17:30.750Z,10.80
2023-04-03T03:18:30.767Z,10.00
2023-04-03T03:19:30.731Z,10.20
2023-04-03T03:20:30.720Z,10.30
2023-04-03T03:21:30.737Z,11.10
2023-04-03T03:22:31.783Z,12.90
2023-04-03T03:23:31.731Z,10.00
2023-04-03T03:24:30.696Z,14.30
2023-04-03T03:25:30.682Z,10.30
2023-04-03T03:26:30.668Z,10.50
2023-04-03T03:27:30.653Z,11.40
2023-04-03T03:28:30.663Z,12.80
2023-04-03T03:29:30.637Z,12.80
2023-04-03T03:30:30.626Z,12.20
2023-04-03T03:31:30.630Z,9.80
2023-04-03T03:32:30.669Z,12.40
2023-04-03T03:33:30.609Z,14.70
2023-04-03T03:34:30.597Z,10.60
2023-04-03T03:35:30.593Z,13.20
2023-04-03T03:36:30.569Z,13.30
2023-04-03T03:37:30.586Z,12.20
2023-04-03T03:38:30.573Z,13.50
2023-04-03T03:39:31.551Z,9.00
2023-04-03T03:40:30.555Z,14.50
2023-04-03T03:41:30.529Z,8.60
2023-04-03T03:42:30.531Z,10.50
2023-04-03T03:43:30.529Z,13.90
2023-04-03T03:44:30.503Z,12.60
2023-04-03T03:45:30.529Z,13.50
2023-04-03T03:46:30.546Z,12.20
2023-04-03T03:47:30.500Z,10.90
2023-04-03T03:48:30.480Z,15.80
2023-04-03T03:49:30.463Z,11.50
2023-04-03T03:50:30.452Z,13.40
2023-04-03T03:51:30.443Z,11.50
2023-04-03T03:52:30.426Z,11.30
2023-04-03T03:53:30.443Z,11.10
2023-04-03T03:54:30.410Z,11.40
2023-04-03T03:55:30.406Z,13.40
2023-04-03T03:56:30.386Z,15.50
2023-04-03T03:57:30.492Z,10.10
2023-04-03T03:58:30.390Z,12.30
2023-04-03T03:59:30.353Z,14.40
2023-04-03T04:00:30.345Z,10.80
2023-04-03T04:01:30.336Z,8.90
2023-04-03T04:02:30.403Z,12.20
2023-04-03T04:03:30.421Z,10.80
2023-04-03T04:04:30.308Z,8.30
2023-04-03T04:05:30.315Z,11.50
2023-04-03T04:06:30.301Z,11.30
2023-04-03T04:07:30.343Z,9.30
2023-04-03T04:08:30.296Z,10.80
2023-04-03T04:09:30.315Z,11.00
2023-04-03T04:10:30.261Z,11.70
2023-04-03T04:11:30.266Z,10.00
2023-04-03T04:12:30.244Z,16.80
2023-04-03T04:13:30.256Z,11.90
2023-04-03T04:14:30.222Z,12.30
2023-04-03T04:15:30.209Z,11.80
2023-04-03T04:16:30.216Z,12.60
2023-04-03T04:17:30.241Z,13.10
2023-04-03T04:18:30.201Z,9.10
2023-04-03T04:19:30.183Z,13.00
2023-04-03T04:20:30.177Z,11.70
2023-04-03T04:21:30.177Z,13.40
2023-04-03T04:22:30.147Z,11.20
2023-04-03T04:23:31.165Z,14.70
2023-04-03T04:24:30.127Z,9.40
2023-04-03T04:25:30.135Z,12.50
2023-04-03T04:26:30.113Z,11.60
2023-04-03T04:27:30.104Z,15.00
2023-04-03T04:28:30.120Z,12.80
2023-04-03T04:29:30.080Z,13.50
2023-04-03T04:30:30.076Z,9.20
2023-04-03T04:31:30.132Z,11.20
2023-04-03T04:32:30.077Z,12.60
2023-04-03T04:33:30.053Z,15.00
2023-04-03T04:34:30.126Z,10.90
2023-04-03T04:35:30.139Z,14.10
2023-04-03T04:36:30.067Z,16.90
2023-04-03T04:37:30.003Z,13.80
2023-04-03T04:39:01.920Z,13.60
2023-04-03T04:39:29.980Z,15.30
2023-04-03T04:40:29.972Z,11.10
2023-04-03T04:41:29.968Z,11.70
2023-04-03T04:42:29.956Z,12.50
2023-04-03T04:43:29.981Z,12.90
2023-04-03T04:44:29.931Z,11.00
2023-04-03T04:45:29.918Z,12.10
2023-04-03T04:46:29.934Z,10.90
2023-04-03T04:47:29.936Z,11.80
2023-04-03T04:48:31.455Z,11.60
2023-04-03T04:49:29.886Z,10.80
2023-04-03T04:50:29.881Z,13.20
2023-04-03T04:51:35.109Z,11.50
2023-04-03T04:52:31.860Z,12.70
2023-04-03T04:53:29.865Z,12.00
2023-04-03T04:54:29.850Z,10.70
2023-04-03T04:55:29.833Z,10.20
2023-04-03T04:56:29.830Z,12.20
2023-04-03T04:57:29.885Z,10.90
2023-04-03T04:58:29.841Z,9.70
2023-04-03T04:59:29.816Z,11.00
2023-04-03T05:00:29.782Z,13.10
2023-04-03T05:01:29.809Z,12.40
2023-04-03T05:02:29.799Z,13.00
2023-04-03T05:03:29.782Z,11.60
2023-04-03T05:04:29.781Z,13.60
2023-04-03T05:05:29.735Z,14.80
2023-04-03T05:06:29.723Z,14.20
2023-04-03T05:07:29.726Z,13.00
2023-04-03T05:08:29.755Z,12.30
2023-04-03T05:09:29.698Z,13.00
2023-04-03T05:10:29.681Z,13.70
2023-04-03T05:11:29.676Z,13.10
2023-04-03T05:12:29.668Z,13.00
2023-04-03T05:13:29.687Z,12.10
2023-04-03T05:14:29.657Z,14.10
2023-04-03T05:15:29.648Z,11.30
2023-04-03T05:16:29.720Z,12.50
2023-04-03T05:17:29.656Z,13.60
2023-04-03T05:18:29.643Z,10.00
2023-04-03T05:19:29.621Z,13.90
2023-04-03T05:20:29.599Z,11.80
2023-04-03T05:21:29.589Z,13.80
2023-04-03T05:22:29.570Z,11.60
2023-04-03T05:23:29.585Z,12.80
2023-04-03T05:24:29.567Z,13.20
2023-04-03T05:25:29.548Z,12.50
2023-04-03T05:26:29.554Z,12.70
2023-04-03T05:27:29.536Z,11.60
2023-04-03T05:28:29.551Z,13.70
2023-04-03T05:29:29.511Z,11.70
2023-04-03T05:30:29.509Z,13.40
2023-04-03T05:31:29.532Z,11.50
2023-04-03T05:32:29.518Z,12.00
2023-04-03T05:33:29.489Z,11.30
2023-04-03T05:34:29.462Z,12.90
2023-04-03T05:35:29.450Z,11.70
2023-04-03T05:36:29.444Z,13.00
2023-04-03T05:37:29.439Z,10.60
2023-04-03T05:38:29.475Z,14.50
2023-04-03T05:39:29.413Z,11.40
2023-04-03T05:40:29.403Z,11.90
2023-04-03T05:41:29.392Z,14.40
2023-04-03T05:42:29.401Z,10.00
2023-04-03T05:43:29.395Z,13.90
2023-04-03T05:44:29.370Z,11.10
2023-04-03T05:45:29.413Z,15.00
2023-04-03T05:46:29.348Z,13.20
2023-04-03T05:47:29.367Z,12.00
2023-04-03T05:48:29.355Z,11.70
2023-04-03T05:49:29.319Z,12.60
2023-04-03T05:50:29.308Z,13.00
2023-04-03T05:51:29.317Z,13.30
2023-04-03T05:52:29.290Z,16.90
2023-04-03T05:53:29.305Z,10.70
2023-04-03T05:54:29.282Z,12.30
2023-04-03T05:55:29.256Z,13.90
2023-04-03T05:56:29.263Z,14.00
2023-04-03T05:57:29.272Z,13.80
2023-04-03T05:58:29.253Z,13.10
2023-04-03T05:59:29.231Z,13.40
2023-04-03T06:00:29.247Z,13.50
2023-04-03T06:01:29.209Z,13.30
2023-04-03T06:02:29.210Z,11.60
2023-04-03T06:03:29.263Z,13.40
2023-04-03T06:04:29.349Z,12.10
2023-04-03T06:05:29.181Z,16.10
2023-04-03T06:06:29.167Z,10.60
2023-04-03T06:07:29.153Z,13.90
2023-04-03T06:08:29.142Z,11.00
2023-04-03T06:09:29.158Z,15.00
2023-04-03T06:10:29.122Z,10.30
2023-04-03T06:11:29.121Z,15.50
2023-04-03T06:12:29.109Z,13.60
2023-04-03T06:13:29.097Z,11.80
2023-04-03T06:14:29.103Z,16.50
2023-04-03T06:15:29.076Z,12.20
2023-04-03T06:16:29.153Z,12.20
2023-04-03T06:17:29.085Z,15.30
2023-04-03T06:18:29.056Z,9.20
2023-04-03T06:19:29.101Z,11.90
2023-04-03T06:20:29.138Z,11.30
2023-04-03T06:21:29.036Z,12.50
2023-04-03T06:22:29.021Z,11.00
2023-04-03T06:23:29.257Z,11.40
2023-04-03T06:24:29.020Z,10.60
2023-04-03T06:25:29.093Z,12.50
2023-04-03T06:26:28.983Z,13.00
2023-04-03T06:27:28.990Z,12.90
2023-04-03T06:28:28.968Z,11.00
2023-04-03T06:29:28.975Z,12.50
2023-04-03T06:30:28.943Z,10.50
2023-04-03T06:31:29.031Z,11.40
2023-04-03T06:32:28.978Z,10.70
2023-04-03T06:33:29.933Z,12.50
2023-04-03T06:34:28.930Z,11.00
2023-04-03T06:35:28.897Z,13.70
2023-04-03T06:36:28.934Z,11.50
2023-04-03T06:37:28.881Z,16.30
2023-04-03T06:38:28.872Z,14.60
2023-04-03T06:39:28.896Z,19.70
2023-04-03T06:40:28.856Z,15.00
2023-04-03T06:41:28.853Z,14.30
2023-04-03T06:42:28.839Z,10.50
2023-04-03T06:43:28.836Z,11.30
2023-04-03T06:44:28.859Z,20.60
2023-04-03T06:45:28.821Z,17.80
2023-04-03T06:46:28.848Z,14.00
2023-04-03T06:47:28.842Z,17.10
2023-04-03T06:48:28.793Z,16.40
2023-04-03T06:49:28.852Z,13.20
2023-04-03T06:50:28.772Z,11.20
2023-04-03T06:51:28.860Z,11.30
2023-04-03T06:52:28.776Z,10.50
2023-04-03T06:53:28.749Z,11.80
2023-04-03T06:54:28.763Z,11.40
2023-04-03T06:55:28.734Z,13.90
2023-04-03T06:56:28.751Z,12.90
2023-04-03T06:57:28.789Z,12.80
2023-04-03T06:58:28.705Z,12.30
2023-04-03T06:59:28.738Z,8.40
2023-04-03T07:00:28.719Z,11.60
2023-04-03T07:01:28.971Z,13.50
2023-04-03T07:02:28.678Z,10.80
2023-04-03T07:03:28.794Z,11.60
2023-04-03T07:04:28.724Z,11.10
2023-04-03T07:05:28.649Z,12.60
2023-04-03T07:06:28.651Z,9.90
2023-04-03T07:07:28.640Z,12.10
2023-04-03T07:08:28.632Z,10.50
2023-04-03T07:09:28.643Z,13.80
2023-04-03T07:10:28.605Z,10.50
2023-04-03T07:11:28.604Z,10.70
2023-04-03T07:12:28.594Z,11.40
2023-04-03T07:13:28.606Z,10.70
2023-04-03T07:14:28.577Z,12.10
2023-04-03T07:15:28.556Z,9.50
2023-04-03T07:16:28.611Z,12.60
2023-04-03T07:17:28.737Z,13.30
2023-04-03T07:18:28.584Z,9.90
2023-04-03T07:19:28.559Z,12.80
2023-04-03T07:20:28.511Z,10.70
2023-04-03T07:21:28.507Z,11.40
2023-04-03T07:22:28.494Z,8.70
2023-04-03T07:23:28.491Z,8.60
2023-04-03T07:24:28.497Z,7.60
2023-04-03T07:25:28.473Z,11.50
2023-04-03T07:26:28.461Z,10.60
2023-04-03T07:27:28.458Z,9.30
2023-04-03T07:28:28.475Z,10.70
2023-04-03T07:29:28.465Z,8.10
2023-04-03T07:30:28.431Z,12.00
2023-04-03T07:31:28.465Z,9.10
2023-04-03T07:32:28.444Z,7.50
2023-04-03T07:33:28.399Z,9.40
2023-04-03T07:34:28.446Z,9.70
2023-04-03T07:35:28.392Z,9.80
2023-04-03T07:36:28.365Z,9.00
2023-04-03T07:37:29.265Z,14.30
2023-04-03T07:38:28.354Z,10.40
2023-04-03T07:39:28.364Z,10.40
2023-04-03T07:40:28.341Z,14.30
2023-04-03T07:41:29.188Z,17.70
2023-04-03T07:42:28.384Z,13.80
2023-04-03T07:43:28.322Z,12.10
2023-04-03T07:44:28.293Z,13.40
2023-04-03T07:45:28.295Z,9.10
2023-04-03T07:46:28.313Z,10.40
2023-04-03T07:47:28.337Z,8.40
2023-04-03T07:48:28.285Z,12.50
2023-04-03T07:49:28.279Z,9.80
2023-04-03T07:50:28.241Z,10.00
2023-04-03T07:51:28.262Z,11.50
2023-04-03T07:52:28.209Z,11.50
2023-04-03T07:53:28.201Z,12.10
2023-04-03T07:54:28.222Z,12.70
2023-04-03T07:55:28.190Z,11.60
2023-04-03T07:56:28.201Z,8.90
2023-04-03T07:57:28.207Z,11.80
2023-04-03T07:58:28.159Z,9.40
2023-04-03T07:59:28.160Z,9.10
2023-04-03T08:00:28.136Z,11.10
2023-04-03T08:01:28.118Z,10.60
2023-04-03T08:02:28.121Z,8.70
2023-04-03T08:03:28.252Z,10.20
2023-04-03T08:04:28.229Z,9.00
2023-04-03T08:05:28.067Z,11.90
2023-04-03T08:06:42.047Z,9.30
2023-04-03T08:07:30.055Z,11.80
2023-04-03T08:08:28.042Z,7.00
2023-04-03T08:09:28.055Z,8.10
2023-04-03T08:10:28.023Z,7.70
2023-04-03T08:11:28.009Z,8.20
2023-04-03T08:12:28.000Z,6.90
2023-04-03T08:13:27.998Z,5.60
2023-04-03T08:14:27.999Z,7.70
2023-04-03T08:15:27.969Z,8.40
2023-04-03T08:16:28.050Z,10.00
2023-04-03T08:17:27.967Z,7.80
2023-04-03T08:18:27.940Z,8.00
2023-04-03T08:19:27.949Z,9.70
2023-04-03T08:20:27.914Z,7.30
2023-04-03T08:21:27.903Z,10.60
2023-04-03T08:22:27.888Z,9.50
2023-04-03T08:23:27.873Z,9.30
2023-04-03T08:24:27.883Z,7.60
2023-04-03T08:25:27.849Z,7.40
2023-04-03T08:26:27.841Z,6.10
2023-04-03T08:27:28.297Z,6.70
2023-04-03T08:28:27.830Z,8.30
2023-04-03T08:29:27.830Z,6.20
2023-04-03T08:30:27.791Z,8.20
2023-04-03T08:31:27.809Z,5.50
2023-04-03T08:32:27.840Z,6.60
2023-04-03T08:33:27.761Z,7.60
2023-04-03T08:34:27.766Z,7.20
2023-04-03T08:35:27.735Z,9.80
2023-04-03T08:36:27.751Z,5.60
2023-04-03T08:37:27.717Z,7.20
2023-04-03T08:38:27.719Z,6.70
2023-04-03T08:39:27.714Z,8.10
2023-04-03T08:40:27.681Z,9.80
2023-04-03T08:41:27.677Z,7.80
2023-04-03T08:42:27.662Z,7.30
2023-04-03T08:43:27.652Z,6.00
2023-04-03T08:44:27.685Z,5.80
2023-04-03T08:45:27.714Z,7.20
2023-04-03T08:46:27.657Z,6.70
2023-04-03T08:47:27.627Z,6.40
2023-04-03T08:48:27.586Z,7.10
2023-04-03T08:49:27.633Z,5.80
2023-04-03T08:50:29.291Z,4.50
2023-04-03T08:51:27.557Z,7.00
2023-04-03T08:52:27.553Z,5.30
2023-04-03T08:53:27.532Z,6.20
2023-04-03T08:54:27.554Z,4.50
2023-04-03T08:55:27.524Z,4.50
2023-04-03T08:56:27.510Z,8.70
2023-04-03T08:57:27.645Z,7.50
2023-04-03T08:58:27.475Z,5.90
2023-04-03T08:59:27.488Z,6.20
2023-04-03T09:00:27.462Z,8.60
2023-04-03T09:01:27.550Z,6.10
2023-04-03T09:02:27.451Z,8.20
2023-04-03T09:03:27.492Z,5.80
2023-04-03T09:04:27.442Z,5.30
2023-04-03T09:05:27.434Z,8.20
2023-04-03T09:06:27.416Z,4.50
2023-04-03T09:07:27.377Z,5.70
2023-04-03T09:08:27.388Z,4.20
2023-04-03T09:09:27.393Z,5.20
2023-04-03T09:10:27.359Z,6.40
2023-04-03T09:11:27.341Z,4.60
2023-04-03T09:12:27.333Z,7.10
2023-04-03T09:13:27.323Z,6.10
2023-04-03T09:14:27.300Z,4.80
2023-04-03T09:15:35.985Z,7.40
2023-04-03T09:16:29.425Z,6.00
2023-04-03T09:17:27.368Z,5.30
2023-04-03T09:18:27.265Z,6.90
2023-04-03T09:19:27.269Z,7.60
2023-04-03T09:20:27.252Z,7.90
2023-04-03T09:21:27.229Z,7.60
2023-04-03T09:22:27.204Z,8.10
2023-04-03T09:23:27.207Z,7.50
2023-04-03T09:24:27.205Z,5.10
2023-04-03T09:25:27.213Z,5.30
2023-04-03T09:26:27.173Z,4.70
2023-04-03T09:27:27.206Z,8.10
2023-04-03T09:28:27.849Z,5.10
2023-04-03T09:29:27.143Z,4.30
2023-04-03T09:30:27.176Z,9.60
2023-04-03T09:31:27.174Z,6.10
2023-04-03T09:32:27.114Z,7.00
2023-04-03T09:33:27.200Z,6.60
2023-04-03T09:34:27.159Z,6.50
2023-04-03T09:35:32.795Z,6.40
2023-04-03T09:36:29.136Z,7.00
2023-04-03T09:37:27.059Z,6.80
2023-04-03T09:38:27.051Z,6.60
2023-04-03T09:39:27.028Z,8.00
2023-04-03T09:40:27.117Z,4.60
2023-04-03T09:41:27.022Z,6.60
2023-04-03T09:42:27.001Z,8.10
2023-04-03T09:43:26.992Z,5.20
2023-04-03T09:44:26.988Z,7.10
2023-04-03T09:45:27.000Z,5.80
2023-04-03T09:46:26.970Z,5.50
2023-04-03T09:47:27.002Z,5.30
2023-04-03T09:48:26.987Z,7.50
2023-04-03T09:49:27.042Z,5.20
2023-04-03T09:50:26.945Z,7.40
2023-04-03T09:51:26.915Z,4.50
2023-04-03T09:52:26.908Z,8.10
2023-04-03T09:53:26.975Z,4.40
2023-04-03T09:54:26.872Z,6.20
2023-04-03T09:55:26.888Z,4.30
2023-04-03T09:56:26.866Z,8.10
2023-04-03T09:57:26.892Z,6.40
2023-04-03T09:58:28.130Z,7.00
2023-04-03T09:59:26.830Z,8.50
2023-04-03T10:00:26.847Z,4.70
2023-04-03T10:01:26.868Z,6.00
2023-04-03T10:02:26.850Z,5.10
2023-04-03T10:03:26.798Z,4.20
2023-04-03T10:04:26.831Z,7.30
2023-04-03T10:05:26.886Z,4.90
2023-04-03T10:06:26.779Z,6.80
2023-04-03T10:07:26.770Z,4.90
2023-04-03T10:08:26.762Z,3.90
2023-04-03T10:09:26.736Z,5.00
2023-04-03T10:10:26.858Z,5.60
2023-04-03T10:11:26.733Z,5.60
2023-04-03T10:12:26.714Z,5.70
2023-04-03T10:13:26.695Z,7.70
2023-04-03T10:14:26.713Z,6.40
2023-04-03T10:15:26.699Z,6.10
2023-04-03T10:16:26.676Z,6.80
2023-04-03T10:17:26.688Z,4.70
2023-04-03T10:18:26.697Z,5.70
2023-04-03T10:19:26.638Z,5.10
2023-04-03T10:20:26.668Z,4.40
2023-04-03T10:21:27.678Z,4.60
2023-04-03T10:22:27.603Z,4.90
2023-04-03T10:23:26.594Z,8.70
2023-04-03T10:24:26.580Z,8.00
2023-04-03T10:25:26.600Z,7.90
2023-04-03T10:26:26.563Z,7.70
2023-04-03T10:27:26.569Z,8.50
2023-04-03T10:28:26.550Z,5.00
2023-04-03T10:29:26.553Z,6.60
2023-04-03T10:30:26.574Z,5.80
2023-04-03T10:31:26.544Z,6.90
2023-04-03T10:32:26.535Z,4.50
2023-04-03T10:33:26.513Z,5.10
2023-04-03T10:34:26.483Z,7.80
2023-04-03T10:35:26.511Z,6.70
2023-04-03T10:36:26.464Z,10.60
2023-04-03T10:37:26.476Z,5.70
2023-04-03T10:38:43.641Z,8.30
2023-04-03T10:39:26.437Z,5.90
2023-04-03T10:40:26.466Z,7.20
2023-04-03T10:41:26.421Z,4.80
2023-04-03T10:42:26.407Z,5.90
2023-04-03T10:43:26.398Z,8.60
2023-04-03T10:44:26.381Z,5.30
2023-04-03T10:45:26.406Z,5.30
2023-04-03T10:46:26.374Z,4.60
2023-04-03T10:47:26.402Z,7.00
2023-04-03T10:48:26.354Z,5.60
2023-04-03T10:49:26.324Z,6.80
2023-04-03T10:50:26.364Z,7.90
2023-04-03T10:51:26.310Z,5.20
2023-04-03T10:52:26.301Z,4.10
2023-04-03T10:53:26.379Z,8.40
2023-04-03T10:54:26.278Z,6.50
2023-04-03T10:55:26.315Z,4.00
2023-04-03T10:56:26.283Z,6.50
2023-04-03T10:57:26.267Z,7.70
2023-04-03T10:58:26.240Z,6.90
2023-04-03T10:59:26.234Z,5.90
2023-04-03T11:00:26.248Z,8.00
2023-04-03T11:01:26.247Z,3.90
2023-04-03T11:02:27.919Z,7.80
2023-04-03T11:03:26.290Z,4.60
2023-04-03T11:04:26.182Z,3.60
2023-04-03T11:05:26.232Z,5.00
2023-04-03T11:06:26.173Z,4.60
2023-04-03T11:07:26.157Z,6.00
2023-04-03T11:08:26.187Z,5.30
2023-04-03T11:09:26.239Z,4.40
2023-04-03T11:10:26.177Z,4.70
2023-04-03T11:11:26.124Z,7.90
2023-04-03T11:12:26.114Z,4.30
2023-04-03T11:13:26.108Z,5.00
2023-04-03T11:14:26.087Z,5.30
2023-04-03T11:15:26.154Z,5.00
2023-04-03T11:16:26.124Z,6.80
2023-04-03T11:17:26.087Z,7.50
2023-04-03T11:18:26.053Z,6.10
2023-04-03T11:19:26.050Z,4.50
2023-04-03T11:20:26.078Z,5.10
2023-04-03T11:21:26.038Z,4.30
2023-04-03T11:22:26.051Z,7.10
2023-04-03T11:23:28.290Z,5.60
2023-04-03T11:24:25.994Z,5.10
2023-04-03T11:25:26.092Z,7.00
2023-04-03T11:26:25.980Z,5.50
2023-04-03T11:27:26.043Z,6.10
2023-04-03T11:28:25.952Z,5.30
2023-04-03T11:29:35.101Z,7.20
2023-04-03T11:30:27.933Z,6.70
2023-04-03T11:31:25.951Z,3.60
2023-04-03T11:32:25.946Z,5.50
2023-04-03T11:33:25.901Z,3.10
2023-04-03T11:34:25.891Z,3.30
2023-04-03T11:35:25.885Z,4.90
2023-04-03T11:36:27.443Z,6.40
2023-04-03T11:37:26.891Z,4.10
2023-04-03T11:38:25.872Z,6.80
2023-04-03T11:39:26.844Z,5.30
2023-04-03T11:40:25.870Z,6.20
2023-04-03T11:41:25.907Z,3.80
2023-04-03T11:42:25.861Z,6.30
2023-04-03T11:43:25.808Z,5.80
2023-04-03T11:44:25.789Z,4.80
2023-04-03T11:45:25.824Z,4.60
2023-04-03T11:46:25.798Z,6.50
2023-04-03T11:47:25.802Z,6.60
2023-04-03T11:48:25.791Z,5.30
2023-04-03T11:49:25.741Z,5.60
2023-04-03T11:50:25.753Z,6.40
2023-04-03T11:51:25.770Z,4.00
2023-04-03T11:52:25.748Z,4.50
2023-04-03T11:53:25.728Z,4.70
2023-04-03T11:54:28.072Z,8.90
2023-04-03T11:55:27.714Z,7.90
2023-04-03T11:56:25.679Z,5.00
2023-04-03T11:57:25.795Z,5.00
2023-04-03T11:58:25.673Z,6.30
2023-04-03T11:59:25.641Z,4.10
2023-04-03T12:00:25.640Z,4.00
2023-04-03T12:01:26.710Z,5.70
2023-04-03T12:02:25.736Z,5.00
2023-04-03T12:03:25.680Z,4.60
2023-04-03T12:04:25.632Z,8.00
2023-04-03T12:05:25.582Z,9.20
2023-04-03T12:06:25.610Z,6.30
2023-04-03T12:07:25.578Z,6.20
2023-04-03T12:08:25.574Z,7.50
2023-04-03T12:09:25.539Z,5.60
2023-04-03T12:10:32.296Z,9.10
2023-04-03T12:11:27.527Z,4.60
2023-04-03T12:12:25.530Z,8.70
2023-04-03T12:13:25.604Z,6.00
2023-04-03T12:14:25.493Z,7.60
2023-04-03T12:15:25.502Z,6.40
2023-04-03T12:16:25.495Z,5.90
2023-04-03T12:17:25.501Z,5.10
2023-04-03T12:18:25.455Z,5.40
2023-04-03T12:19:32.272Z,6.20
2023-04-03T12:20:27.429Z,6.50
2023-04-03T12:21:26.453Z,7.10
2023-04-03T12:22:25.438Z,7.70
2023-04-03T12:23:25.417Z,7.60
2023-04-03T12:24:25.395Z,4.40
2023-04-03T12:25:25.392Z,6.10
2023-04-03T12:26:28.194Z,7.30
2023-04-03T12:27:26.364Z,6.70
2023-04-03T12:28:25.353Z,7.90
2023-04-03T12:29:25.445Z,5.00
2023-04-03T12:30:25.337Z,6.90
2023-04-03T12:31:25.381Z,4.40
2023-04-03T12:32:25.350Z,7.90
2023-04-03T12:33:25.333Z,7.20
2023-04-03T12:34:25.306Z,6.80
2023-04-03T12:35:25.299Z,5.50
2023-04-03T12:36:25.328Z,9.80
2023-04-03T12:37:25.265Z,5.00
2023-04-03T12:38:25.270Z,8.50
2023-04-03T12:39:25.273Z,7.60
2023-04-03T12:40:25.237Z,9.00
2023-04-03T12:41:25.253Z,8.20
2023-04-03T12:42:25.223Z,8.70
2023-04-03T12:43:25.219Z,6.80
2023-04-03T12:44:25.203Z,9.00
2023-04-03T12:45:25.340Z,5.40
2023-04-03T12:46:25.347Z,5.90
2023-04-03T12:47:25.230Z,6.10
2023-04-03T12:48:25.159Z,8.50
2023-04-03T12:49:25.157Z,6.40
2023-04-03T12:50:25.164Z,5.60
2023-04-03T12:51:25.162Z,7.20
2023-04-03T12:52:25.150Z,6.40
2023-04-03T12:53:26.117Z,4.80
2023-04-03T12:54:25.111Z,6.90
2023-04-03T12:55:25.126Z,7.10
2023-04-03T12:56:25.135Z,4.20
2023-04-03T12:57:25.124Z,5.90
2023-04-03T12:58:25.083Z,6.00
2023-04-03T12:59:25.062Z,4.20
2023-04-03T13:00:25.062Z,6.80
2023-04-03T13:01:25.186Z,4.20
2023-04-03T13:02:25.073Z,7.10
2023-04-03T13:03:25.075Z,6.20
2023-04-03T13:04:25.016Z,6.50
2023-04-03T13:05:24.999Z,5.40
2023-04-03T13:06:25.036Z,6.10
2023-04-03T13:07:24.975Z,6.80